createdAt,value
2019-03-04T00:00:45.110Z,1.47
2019-03-04T00:03:17.058Z,1.93
2019-03-04T00:05:51.752Z,2.07
2019-03-04T00:08:21.728Z,1.45
2019-03-04T00:10:51.676Z,1.70
2019-03-04T00:13:21.746Z,1.77
2019-03-04T00:15:54.395Z,1.80
2019-03-04T00:18:24.368Z,1.70
2019-03-04T00:20:55.655Z,2.02
2019-03-04T00:23:25.673Z,2.80
2019-03-04T00:25:55.615Z,1.70
2019-03-04T00:28:25.691Z,1.80
2019-03-04T00:30:56.070Z,1.77
2019-03-04T00:33:29.039Z,2.23
2019-03-04T00:36:03.886Z,1.60
2019-03-04T00:38:39.861Z,2.30
2019-03-04T00:41:13.425Z,1.63
2019-03-04T00:43:43.552Z,1.47
2019-03-04T00:46:13.706Z,1.73
2019-03-04T00:48:51.623Z,1.57
2019-03-04T00:51:38.129Z,1.60
2019-03-04T00:54:32.807Z,2.27
2019-03-04T00:57:07.584Z,2.47
2019-03-04T00:59:48.545Z,1.57
2019-03-04T01:02:30.053Z,1.50
2019-03-04T01:05:17.866Z,1.80
2019-03-04T01:10:43.057Z,2.00
2019-03-04T01:13:12.861Z,2.13
2019-03-04T01:15:42.853Z,1.70
2019-03-04T01:18:13.026Z,1.50
2019-03-04T01:20:42.936Z,1.77
2019-03-04T01:23:12.900Z,1.53
2019-03-04T01:25:43.450Z,2.00
2019-03-04T01:28:13.146Z,1.17
2019-03-04T01:30:43.015Z,1.63
2019-03-04T01:33:13.069Z,1.13
2019-03-04T01:35:42.965Z,1.33
2019-03-04T01:38:12.788Z,1.50
2019-03-04T01:40:42.679Z,1.13
2019-03-04T01:43:12.585Z,1.30
2019-03-04T01:45:42.456Z,1.50
2019-03-04T01:48:14.095Z,1.33
2019-03-04T01:50:45.163Z,1.35
2019-03-04T01:53:15.558Z,1.50
2019-03-04T01:55:45.437Z,1.23
2019-03-04T01:58:15.283Z,1.33
2019-03-04T02:00:45.317Z,1.40
2019-03-04T02:03:15.153Z,0.97
2019-03-04T02:05:45.382Z,0.97
2019-03-04T02:08:15.333Z,1.32
2019-03-04T02:10:45.188Z,1.23
2019-03-04T02:13:15.119Z,1.20
2019-03-04T02:15:46.177Z,1.20
2019-03-04T02:18:16.268Z,1.17
2019-03-04T02:20:46.792Z,1.47
2019-03-04T02:23:16.708Z,0.97
2019-03-04T02:26:22.960Z,1.00
2019-03-04T02:28:54.057Z,0.78
2019-03-04T02:31:24.299Z,0.90
2019-03-04T02:33:55.498Z,0.82
2019-03-04T02:36:25.376Z,0.90
2019-03-04T02:38:55.465Z,0.70
2019-03-04T02:41:25.468Z,0.73
2019-03-04T02:43:55.250Z,0.80
2019-03-04T02:46:25.242Z,0.75
2019-03-04T02:48:55.082Z,0.70
2019-03-04T02:51:24.921Z,0.73
2019-03-04T02:53:54.864Z,0.60
2019-03-04T02:56:24.824Z,0.70
2019-03-04T02:58:54.715Z,0.63
2019-03-04T03:01:24.469Z,0.60
2019-03-04T03:03:54.639Z,0.60
2019-03-04T03:06:24.687Z,0.80
2019-03-04T03:08:54.605Z,0.50
2019-03-04T03:11:24.448Z,0.57
2019-03-04T03:13:54.173Z,0.53
2019-03-04T03:16:23.903Z,0.50
2019-03-04T03:18:54.516Z,0.80
2019-03-04T03:21:28.724Z,0.63
2019-03-04T03:23:59.498Z,0.60
2019-03-04T03:26:29.570Z,0.63
2019-03-04T03:28:59.395Z,0.70
2019-03-04T03:31:29.340Z,0.60
2019-03-04T03:34:00.443Z,0.60
2019-03-04T03:36:33.599Z,0.73
2019-03-04T03:39:04.962Z,0.62
2019-03-04T03:41:36.284Z,0.80
2019-03-04T03:44:06.326Z,0.80
2019-03-04T03:46:36.093Z,0.60
2019-03-04T03:49:06.001Z,0.80
2019-03-04T03:51:35.961Z,0.78
2019-03-04T03:54:06.033Z,0.77
2019-03-04T03:56:36.315Z,0.80
2019-03-04T03:59:06.271Z,0.97
2019-03-04T04:01:36.047Z,1.10
2019-03-04T04:04:05.953Z,1.23
2019-03-04T04:06:35.942Z,1.10
2019-03-04T04:09:06.766Z,1.17
2019-03-04T04:11:37.074Z,1.17
2019-03-04T04:14:06.873Z,1.10
2019-03-04T04:16:36.773Z,1.07
2019-03-04T04:19:06.801Z,1.33
2019-03-04T04:21:36.837Z,1.00
2019-03-04T04:24:06.830Z,1.20
2019-03-04T04:26:37.526Z,1.95
2019-03-04T04:29:10.086Z,0.90
2019-03-04T04:31:40.258Z,0.73
2019-03-04T04:34:10.110Z,1.10
2019-03-04T04:36:39.975Z,0.80
2019-03-04T04:39:10.314Z,1.07
2019-03-04T04:41:40.327Z,1.00
2019-03-04T04:44:10.497Z,1.00
2019-03-04T04:46:57.872Z,0.87
2019-03-04T04:49:32.489Z,1.33
2019-03-04T04:52:02.706Z,1.10
2019-03-04T04:54:32.873Z,0.90
2019-03-04T04:57:02.968Z,0.97
2019-03-04T04:59:33.767Z,0.87
2019-03-04T05:02:03.614Z,0.70
2019-03-04T05:04:33.558Z,0.60
2019-03-04T05:07:03.451Z,1.00
2019-03-04T05:09:33.356Z,0.70
2019-03-04T05:12:03.395Z,0.60
2019-03-04T05:14:33.190Z,0.80
2019-03-04T05:17:02.983Z,1.00
2019-03-04T05:19:32.678Z,0.97
2019-03-04T05:22:02.391Z,0.80
2019-03-04T05:24:32.185Z,0.50
2019-03-04T05:27:01.956Z,0.53
2019-03-04T05:29:31.705Z,0.70
2019-03-04T05:32:02.249Z,0.60
2019-03-04T05:34:31.980Z,0.60
2019-03-04T05:37:02.895Z,0.70
2019-03-04T05:39:32.772Z,0.80
2019-03-04T05:42:02.500Z,0.65
2019-03-04T05:44:32.231Z,0.90
2019-03-04T05:47:02.270Z,1.00
2019-03-04T05:49:32.321Z,0.70
2019-03-04T05:52:03.405Z,0.80
2019-03-04T05:54:33.165Z,0.70
2019-03-04T05:57:02.922Z,0.50
2019-03-04T05:59:32.868Z,0.90
2019-03-04T06:02:06.297Z,0.77
2019-03-04T06:04:36.550Z,0.80
2019-03-04T06:07:09.811Z,0.60
2019-03-04T06:09:39.757Z,1.10
2019-03-04T06:12:09.645Z,0.50
2019-03-04T06:14:39.401Z,0.87
2019-03-04T06:17:09.473Z,0.85
2019-03-04T06:19:39.301Z,0.83
2019-03-04T06:22:10.301Z,0.87
2019-03-04T06:24:40.098Z,0.90
2019-03-04T06:27:10.042Z,1.40
2019-03-04T06:29:39.882Z,1.00
2019-03-04T06:32:10.189Z,1.03
2019-03-04T06:34:40.793Z,1.10
2019-03-04T06:37:10.676Z,0.50
2019-03-04T06:39:40.485Z,0.30
2019-03-04T06:42:10.375Z,0.40
2019-03-04T06:44:40.170Z,0.50
2019-03-04T06:47:10.039Z,0.30
2019-03-04T06:49:39.868Z,0.27
2019-03-04T06:52:09.756Z,0.40
2019-03-04T06:54:58.379Z,0.30
2019-03-04T06:57:32.039Z,0.30
2019-03-04T07:00:14.349Z,0.20
2019-03-04T07:02:44.244Z,0.23
2019-03-04T07:05:45.165Z,0.60
2019-03-04T07:09:11.707Z,0.20
2019-03-04T07:11:46.586Z,0.30
2019-03-04T07:14:16.419Z,0.47
2019-03-04T07:16:47.061Z,0.40
2019-03-04T07:19:20.881Z,0.20
2019-03-04T07:21:50.736Z,0.50
2019-03-04T07:24:20.619Z,0.30
2019-03-04T07:26:50.412Z,0.30
2019-03-04T07:29:20.404Z,0.40
2019-03-04T07:31:50.205Z,0.60
2019-03-04T07:34:20.017Z,0.40
2019-03-04T07:36:49.942Z,0.93
2019-03-04T07:39:20.342Z,0.70
2019-03-04T07:41:57.344Z,0.50
2019-03-04T07:44:27.383Z,0.43
2019-03-04T07:46:57.884Z,0.60
2019-03-04T07:49:27.761Z,0.53
2019-03-04T07:51:58.047Z,0.50
2019-03-04T07:54:27.936Z,0.30
2019-03-04T07:56:57.883Z,0.70
2019-03-04T07:59:27.835Z,0.53
2019-03-04T08:01:57.639Z,0.53
2019-03-04T08:04:27.414Z,0.40
2019-03-04T08:07:41.972Z,0.70
2019-03-04T08:11:01.180Z,0.87
2019-03-04T08:13:40.922Z,0.60
2019-03-04T08:16:11.046Z,0.40
2019-03-04T08:18:40.858Z,0.63
2019-03-04T08:21:10.665Z,0.80
2019-03-04T08:23:40.598Z,0.53
2019-03-04T08:26:10.497Z,0.50
2019-03-04T08:28:40.568Z,0.60
2019-03-04T08:31:10.412Z,0.60
2019-03-04T08:33:40.254Z,1.47
2019-03-04T08:36:10.165Z,0.80
2019-03-04T08:38:40.663Z,0.90
2019-03-04T08:41:10.395Z,0.60
2019-03-04T08:43:40.289Z,0.83
2019-03-04T08:46:10.027Z,0.70
2019-03-04T08:48:39.896Z,0.77
2019-03-04T08:51:09.733Z,0.78
2019-03-04T08:53:39.551Z,0.70
2019-03-04T08:56:09.557Z,0.60
2019-03-04T08:58:39.349Z,0.70
2019-03-04T09:01:09.319Z,0.70
2019-03-04T09:03:39.065Z,0.50
2019-03-04T09:06:08.967Z,0.70
2019-03-04T09:08:38.942Z,0.83
2019-03-04T09:11:09.307Z,0.70
2019-03-04T09:13:39.121Z,0.83
2019-03-04T09:16:08.991Z,0.90
2019-03-04T09:18:38.777Z,1.10
2019-03-04T09:21:09.660Z,0.53
2019-03-04T09:23:39.417Z,0.83
2019-03-04T09:26:10.710Z,0.70
2019-03-04T09:28:41.144Z,0.57
2019-03-04T09:31:11.033Z,0.80
2019-03-04T09:33:40.905Z,1.15
2019-03-04T09:36:10.704Z,0.80
2019-03-04T09:38:40.421Z,0.97
2019-03-04T09:41:11.341Z,1.03
2019-03-04T09:43:41.222Z,0.77
2019-03-04T09:46:11.085Z,0.87
2019-03-04T09:48:41.047Z,1.00
2019-03-04T09:51:10.963Z,0.97
2019-03-04T09:53:42.992Z,0.80
2019-03-04T09:56:13.346Z,1.10
2019-03-04T09:58:43.220Z,0.90
2019-03-04T10:01:26.344Z,1.17
2019-03-04T10:04:40.520Z,1.00
2019-03-04T10:07:48.421Z,0.50
2019-03-04T10:10:55.266Z,0.80
2019-03-04T10:13:38.009Z,0.67
2019-03-04T10:16:38.138Z,0.73
2019-03-04T10:19:30.197Z,0.98
2019-03-04T10:22:28.292Z,1.47
2019-03-04T10:25:34.766Z,1.10
2019-03-04T10:28:45.381Z,0.88
2019-03-04T10:31:56.439Z,1.25
2019-03-04T10:35:05.287Z,1.02
2019-03-04T10:38:05.329Z,1.13
2019-03-04T10:41:08.108Z,1.60
2019-03-04T10:44:23.493Z,1.23
2019-03-04T10:46:59.680Z,2.53
2019-03-04T10:49:35.545Z,0.93
2019-03-04T10:52:08.436Z,1.17
2019-03-04T10:54:39.886Z,1.10
2019-03-04T10:57:09.883Z,1.00
2019-03-04T10:59:39.580Z,1.37
2019-03-04T11:02:09.538Z,0.90
2019-03-04T11:04:39.537Z,1.00
2019-03-04T11:07:09.300Z,1.30
2019-03-04T11:09:39.464Z,1.07
2019-03-04T11:12:09.426Z,1.57
2019-03-04T11:14:39.115Z,1.33
2019-03-04T11:17:09.080Z,0.87
2019-03-04T11:19:38.986Z,1.67
2019-03-04T11:22:09.413Z,0.83
2019-03-04T11:24:39.461Z,1.37
2019-03-04T11:27:09.325Z,1.60
2019-03-04T11:29:39.102Z,1.30
2019-03-04T11:32:09.296Z,0.97
2019-03-04T11:34:39.397Z,1.50
2019-03-04T11:37:09.496Z,1.67
2019-03-04T11:40:07.877Z,1.65
2019-03-04T11:42:37.781Z,0.87
2019-03-04T11:45:10.799Z,2.30
2019-03-04T11:47:40.761Z,1.00
2019-03-04T11:50:12.545Z,0.90
2019-03-04T11:52:42.439Z,0.90
2019-03-04T11:55:12.349Z,0.70
2019-03-04T11:57:42.223Z,0.90
2019-03-04T12:00:18.806Z,0.80
2019-03-04T12:02:49.703Z,0.77
2019-03-04T12:05:19.597Z,0.70
2019-03-04T12:07:49.423Z,0.80
2019-03-04T12:10:19.330Z,1.00
2019-03-04T12:12:49.292Z,1.00
2019-03-04T12:15:20.243Z,1.10
2019-03-04T12:17:50.326Z,1.60
2019-03-04T12:20:20.261Z,1.70
2019-03-04T12:22:50.198Z,1.20
2019-03-04T12:25:22.529Z,1.70
2019-03-04T12:27:52.445Z,1.63
2019-03-04T12:30:22.466Z,1.90
2019-03-04T12:32:52.929Z,1.30
2019-03-04T12:35:25.612Z,1.43
2019-03-04T12:37:56.510Z,1.33
2019-03-04T12:40:26.425Z,1.00
2019-03-04T12:42:56.101Z,1.10
2019-03-04T12:45:34.020Z,1.20
2019-03-04T12:47:57.667Z,1.20
2019-03-04T12:50:27.541Z,1.33
2019-03-04T12:52:57.557Z,0.90
2019-03-04T12:55:27.879Z,0.93
2019-03-04T12:57:57.705Z,0.77
2019-03-04T13:00:27.596Z,0.83
2019-03-04T13:02:58.225Z,1.27
2019-03-04T13:05:28.178Z,1.30
2019-03-04T13:08:14.796Z,1.70
2019-03-04T13:10:44.658Z,1.13
2019-03-04T13:13:14.813Z,1.83
2019-03-04T13:15:44.755Z,1.47
2019-03-04T13:18:14.629Z,1.40
2019-03-04T13:20:44.577Z,1.53
2019-03-04T13:23:14.440Z,1.20
2019-03-04T13:25:48.399Z,1.20
2019-03-04T13:28:19.718Z,1.10
2019-03-04T13:30:49.567Z,1.30
2019-03-04T13:33:19.474Z,0.90
2019-03-04T13:35:49.575Z,1.00
2019-03-04T13:38:19.696Z,1.30
2019-03-04T13:40:51.151Z,1.30
2019-03-04T13:43:20.935Z,1.10
2019-03-04T13:45:53.554Z,1.10
2019-03-04T13:48:24.941Z,1.47
2019-03-04T13:50:59.573Z,1.50
2019-03-04T13:53:29.442Z,2.30
2019-03-04T13:55:59.239Z,2.20
2019-03-04T13:58:29.016Z,2.37
2019-03-04T14:00:58.910Z,2.07
2019-03-04T14:03:28.881Z,2.00
2019-03-04T14:05:59.755Z,1.80
2019-03-04T14:08:32.709Z,1.90
2019-03-04T14:11:04.380Z,2.30
2019-03-04T14:13:34.461Z,2.50
2019-03-04T14:16:05.302Z,2.77
2019-03-04T14:18:35.128Z,1.82
2019-03-04T14:21:05.678Z,2.80
2019-03-04T14:23:35.443Z,2.80
2019-03-04T14:26:05.459Z,2.75
2019-03-04T14:28:35.225Z,2.33
2019-03-04T14:31:05.159Z,2.30
2019-03-04T14:33:39.757Z,2.53
2019-03-04T14:36:09.696Z,2.53
2019-03-04T14:38:42.910Z,2.93
2019-03-04T14:41:13.018Z,2.10
2019-03-04T14:43:43.076Z,2.90
2019-03-04T14:46:28.647Z,2.07
2019-03-04T14:48:59.082Z,2.40
2019-03-04T14:51:29.060Z,2.20
2019-03-04T14:53:59.767Z,2.30
2019-03-04T14:56:29.592Z,2.17
2019-03-04T14:59:10.489Z,2.63
2019-03-04T15:01:32.993Z,2.77
2019-03-04T15:04:03.839Z,1.83
2019-03-04T15:06:34.922Z,2.07
2019-03-04T15:09:08.499Z,2.10
2019-03-04T15:11:38.537Z,2.20
2019-03-04T15:14:08.888Z,1.70
2019-03-04T15:16:38.919Z,1.97
2019-03-04T15:19:08.989Z,2.83
2019-03-04T15:21:39.216Z,1.70
2019-03-04T15:24:10.239Z,1.47
2019-03-04T15:26:44.299Z,1.30
2019-03-04T15:29:16.766Z,1.63
2019-03-04T15:31:49.687Z,1.20
2019-03-04T15:34:20.181Z,1.40
2019-03-04T15:36:50.578Z,1.25
2019-03-04T15:39:23.274Z,1.37
2019-03-04T15:41:52.187Z,1.47
2019-03-04T15:44:22.305Z,0.90
2019-03-04T15:46:52.301Z,1.00
2019-03-04T15:49:23.158Z,1.30
2019-03-04T15:51:53.010Z,1.10
2019-03-04T15:54:22.818Z,1.10
2019-03-04T15:56:52.981Z,1.25
2019-03-04T15:59:23.796Z,0.87
2019-03-04T16:01:53.700Z,1.17
2019-03-04T16:04:23.993Z,1.20
2019-03-04T16:06:54.027Z,1.20
2019-03-04T16:09:25.705Z,1.10
2019-03-04T16:11:56.787Z,1.20
2019-03-04T16:14:27.364Z,1.50
2019-03-04T16:16:59.176Z,1.03
2019-03-04T16:19:29.111Z,1.33
2019-03-04T16:21:59.104Z,1.77
2019-03-04T16:24:28.870Z,1.10
2019-03-04T16:27:10.803Z,1.70
2019-03-04T16:29:40.794Z,1.20
2019-03-04T16:32:12.598Z,1.00
2019-03-04T16:34:45.078Z,1.53
2019-03-04T16:37:15.573Z,1.10
2019-03-04T16:39:45.540Z,0.77
2019-03-04T16:42:15.522Z,1.10
2019-03-04T16:44:45.520Z,0.97
2019-03-04T16:47:15.419Z,1.33
2019-03-04T16:49:45.702Z,0.70
2019-03-04T16:52:19.602Z,0.53
2019-03-04T16:54:53.163Z,1.75
2019-03-04T16:57:23.379Z,0.70
2019-03-04T16:59:53.319Z,0.80
2019-03-04T17:02:27.483Z,0.93
2019-03-04T17:04:57.673Z,0.90
2019-03-04T17:07:27.677Z,1.03
2019-03-04T17:09:57.659Z,0.90
2019-03-04T17:12:28.493Z,1.10
2019-03-04T17:14:58.632Z,1.20
2019-03-04T17:17:29.994Z,1.05
2019-03-04T17:20:00.288Z,0.90
2019-03-04T17:22:31.155Z,1.30
2019-03-04T17:25:03.165Z,1.03
2019-03-04T17:27:34.961Z,0.90
2019-03-04T17:30:07.275Z,1.05
2019-03-04T17:32:37.671Z,0.90
2019-03-04T17:35:08.741Z,1.20
2019-03-04T17:37:39.155Z,0.63
2019-03-04T17:40:13.975Z,1.47
2019-03-04T17:42:47.320Z,1.10
2019-03-04T17:45:19.090Z,1.03
2019-03-04T17:47:52.297Z,1.27
2019-03-04T17:50:33.680Z,1.10
2019-03-04T17:53:06.319Z,1.10
2019-03-04T17:55:36.854Z,1.23
2019-03-04T17:58:07.424Z,0.90
2019-03-04T18:00:39.262Z,1.20
2019-03-04T18:03:09.398Z,1.37
2019-03-04T18:05:39.980Z,0.90
2019-03-04T18:08:13.280Z,1.17
2019-03-04T18:10:46.590Z,1.17
2019-03-04T18:13:16.916Z,1.22
2019-03-04T18:15:47.173Z,1.63
2019-03-04T18:18:17.242Z,1.00
2019-03-04T18:20:47.496Z,1.40
2019-03-04T18:23:17.908Z,1.33
2019-03-04T18:25:58.265Z,1.30
2019-03-04T18:29:15.448Z,1.00
2019-03-04T18:31:57.267Z,1.27
2019-03-04T18:34:48.250Z,2.07
2019-03-04T18:37:56.813Z,0.90
2019-03-04T18:40:44.863Z,1.20
2019-03-04T18:43:58.895Z,1.60
2019-03-04T18:46:48.447Z,2.10
2019-03-04T18:49:18.392Z,1.27
2019-03-04T18:51:48.412Z,1.63
2019-03-04T18:54:19.582Z,1.30
2019-03-04T18:56:59.804Z,1.27
2019-03-04T18:59:29.822Z,1.30
2019-03-04T19:01:59.658Z,1.10
2019-03-04T19:04:29.566Z,1.27
2019-03-04T19:06:59.504Z,2.10
2019-03-04T19:09:29.420Z,1.50
2019-03-04T19:11:59.515Z,1.30
2019-03-04T19:14:30.345Z,1.20
2019-03-04T19:17:00.758Z,1.30
2019-03-04T19:19:30.767Z,0.90
2019-03-04T19:22:00.748Z,1.30
2019-03-04T19:24:30.794Z,1.20
2019-03-04T19:27:00.869Z,1.20
2019-03-04T19:29:31.073Z,1.30
2019-03-04T19:32:01.137Z,1.20
2019-03-04T19:34:31.428Z,1.27
2019-03-04T19:37:02.600Z,1.57
2019-03-04T19:39:32.750Z,1.87
2019-03-04T19:42:04.224Z,1.07
2019-03-04T19:44:36.841Z,1.50
2019-03-04T19:47:07.157Z,1.60
2019-03-04T19:49:37.385Z,1.40
2019-03-04T19:52:07.592Z,1.47
2019-03-04T19:54:37.541Z,2.00
2019-03-04T19:57:07.800Z,1.80
2019-03-04T19:59:37.853Z,1.43
2019-03-04T20:02:07.888Z,1.10
2019-03-04T20:04:37.743Z,2.20
2019-03-04T20:07:08.066Z,3.08
2019-03-04T20:09:37.970Z,1.03
2019-03-04T20:12:07.809Z,1.60
2019-03-04T20:14:37.623Z,2.03
2019-03-04T20:17:07.523Z,1.27
2019-03-04T20:19:37.558Z,1.20
2019-03-04T20:22:07.799Z,1.43
2019-03-04T20:24:37.745Z,1.33
2019-03-04T20:27:07.913Z,1.10
2019-03-04T20:29:38.173Z,1.20
2019-03-04T20:32:08.212Z,1.30
2019-03-04T20:34:38.403Z,1.50
2019-03-04T20:37:08.757Z,1.17
2019-03-04T20:39:39.947Z,1.67
2019-03-04T20:42:09.971Z,1.43
2019-03-04T20:44:40.047Z,1.00
2019-03-04T20:47:10.897Z,1.33
2019-03-04T20:49:40.792Z,1.30
2019-03-04T20:52:11.103Z,1.30
2019-03-04T20:54:45.378Z,1.20
2019-03-04T20:57:15.262Z,1.20
2019-03-04T20:59:52.029Z,1.20
2019-03-04T21:02:23.593Z,1.00
2019-03-04T21:04:54.040Z,1.23
2019-03-04T21:07:23.969Z,1.20
2019-03-04T21:09:56.517Z,1.20
2019-03-04T21:12:26.860Z,1.43
2019-03-04T21:14:57.071Z,1.23
2019-03-04T21:17:27.079Z,1.42
2019-03-04T21:19:58.087Z,1.30
2019-03-04T21:22:28.126Z,1.63
2019-03-04T21:24:58.184Z,1.90
2019-03-04T21:27:28.261Z,1.60
2019-03-04T21:30:10.321Z,1.62
2019-03-04T21:32:49.769Z,2.97
2019-03-04T21:35:35.270Z,1.60
2019-03-04T21:38:07.733Z,1.30
2019-03-04T21:41:00.609Z,1.73
2019-03-04T21:43:39.442Z,1.50
2019-03-04T21:46:37.910Z,1.43
2019-03-04T21:49:11.704Z,1.40
2019-03-04T21:52:02.030Z,1.50
2019-03-04T21:54:33.383Z,1.30
2019-03-04T21:57:27.963Z,1.30
2019-03-04T21:59:59.154Z,1.23
2019-03-04T22:02:38.257Z,1.10
2019-03-04T22:05:13.006Z,1.30
2019-03-04T22:07:43.503Z,1.20
2019-03-04T22:10:13.935Z,1.10
2019-03-04T22:12:45.096Z,1.00
2019-03-04T22:15:17.760Z,1.20
2019-03-04T22:17:47.952Z,1.87
2019-03-04T22:20:21.102Z,1.62
2019-03-04T22:22:53.890Z,1.40
2019-03-04T22:25:24.432Z,1.07
2019-03-04T22:27:54.739Z,1.10
2019-03-04T22:30:24.712Z,0.50
2019-03-04T22:32:54.708Z,1.30
2019-03-04T22:35:24.850Z,1.00
2019-03-04T22:37:55.773Z,1.20
2019-03-04T22:40:25.880Z,1.87
2019-03-04T22:42:55.871Z,1.00
2019-03-04T22:45:25.920Z,1.43
2019-03-04T22:47:55.650Z,1.20
2019-03-04T22:50:25.506Z,1.33
2019-03-04T22:52:55.482Z,1.27
2019-03-04T22:55:37.231Z,1.30
2019-03-04T22:58:07.278Z,1.30
2019-03-04T23:01:35.829Z,1.22
2019-03-04T23:04:31.762Z,1.70
2019-03-04T23:07:11.100Z,1.30
2019-03-04T23:10:22.349Z,1.93
2019-03-04T23:12:56.169Z,1.60
2019-03-04T23:15:26.544Z,1.47
2019-03-04T23:17:56.650Z,1.00
2019-03-04T23:20:26.429Z,2.17
2019-03-04T23:22:57.194Z,2.20
2019-03-04T23:25:27.058Z,1.90
2019-03-04T23:27:56.924Z,1.90
2019-03-04T23:30:26.986Z,1.70
2019-03-04T23:32:58.392Z,1.30
2019-03-04T23:35:28.905Z,1.97
2019-03-04T23:38:00.407Z,2.27
2019-03-04T23:40:30.150Z,1.30
2019-03-04T23:43:00.023Z,1.93
2019-03-04T23:45:30.061Z,1.20
2019-03-04T23:48:02.280Z,2.37
2019-03-04T23:50:32.191Z,1.77
2019-03-04T23:53:02.037Z,1.83
2019-03-04T23:55:31.986Z,2.02
2019-03-04T23:58:02.126Z,1.97
